Time;durP1;ratioP1;P1;durP2;ratioP2;P2;SDS_P1;SDS_P2;PMS_P1;PMS_P2;Temp;Humidity;BMP_temperature;BMP_pressure;BME280_temperature;BME280_humidity;BME280_pressure;Samples;Min_cycle;Max_cycle;Signal;HPM_P1;HPM_P2
2022/06/10 00:01:04;;;;;;;6.55;4.70;;;;;;;-141.50;100.00;63355.56;5079321;28;20053;-76
2022/06/10 00:03:31;;;;;;;8.93;4.90;;;;;;;-141.50;100.00;63355.56;5061447;28;20052;-76
2022/06/10 00:06:00;;;;;;;10.23;4.68;;;;;;;-141.50;100.00;63355.56;5077686;28;20056;-77
2022/06/10 00:08:31;;;;;;;11.38;5.00;;;;;;;-141.50;100.00;63355.56;5079118;28;20045;-77
2022/06/10 00:11:13;;;;;;;8.63;4.97;;;;;;;-141.50;100.00;63355.56;5067940;28;20074;-77
2022/06/10 00:13:42;;;;;;;7.68;4.80;;;;;;;-141.50;100.00;63355.56;5083127;28;20048;-77
2022/06/10 00:16:16;;;;;;;6.65;4.35;;;;;;;-141.50;100.00;63355.56;5076995;28;20056;-76
2022/06/10 00:18:50;;;;;;;8.20;4.65;;;;;;;-141.50;100.00;63355.56;5059551;28;20055;-76
2022/06/10 00:21:19;;;;;;;10.07;4.82;;;;;;;-141.50;100.00;63355.56;5077161;28;20074;-77
2022/06/10 00:23:46;;;;;;;8.30;4.55;;;;;;;-141.50;100.00;63355.56;5062158;28;20060;-78
2022/06/10 00:26:14;;;;;;;9.27;4.80;;;;;;;-141.50;100.00;63355.56;5078178;28;20049;-76
2022/06/10 00:28:43;;;;;;;8.95;4.28;;;;;;;-141.50;100.00;63355.56;5078003;28;20059;-77
2022/06/10 00:31:10;;;;;;;9.23;4.60;;;;;;;-141.50;100.00;63355.56;5079793;28;20048;-76
2022/06/10 00:33:37;;;;;;;9.85;4.40;;;;;;;-141.50;100.00;63355.56;5064270;28;20084;-77
2022/06/10 00:36:03;;;;;;;9.88;3.88;;;;;;;-141.50;100.00;63355.56;5062924;28;20048;-77
2022/06/10 00:38:30;;;;;;;7.45;3.97;;;;;;;-141.50;100.00;63355.56;5053060;28;20135;-77
2022/06/10 00:40:57;;;;;;;9.98;4.30;;;;;;;-141.50;100.00;63355.56;5070104;28;20053;-78
2022/06/10 00:43:28;;;;;;;6.88;4.30;;;;;;;-141.50;100.00;63355.56;5070538;28;20068;-76
2022/06/10 00:46:04;;;;;;;7.00;3.78;;;;;;;-141.50;100.00;63355.56;5071761;28;20052;-77
2022/06/10 00:48:49;;;;;;;9.65;4.13;;;;;;;-141.50;100.00;63355.56;5057246;28;20067;-76
2022/06/10 00:51:41;;;;;;;6.80;3.97;;;;;;;-141.50;100.00;63355.56;5072216;28;20118;-76
2022/06/10 00:54:21;;;;;;;10.55;4.05;;;;;;;-141.50;100.00;63355.56;5071860;28;20049;-77
2022/06/10 00:56:54;;;;;;;7.20;3.60;;;;;;;-141.50;100.00;63355.56;5073365;28;20098;-78
2022/06/10 00:59:24;;;;;;;8.60;3.95;;;;;;;-141.50;100.00;63355.56;5071671;28;20052;-78
2022/06/10 01:01:55;;;;;;;6.93;3.13;;;;;;;-141.50;100.00;63355.56;5054022;28;20064;-78
2022/06/10 01:04:22;;;;;;;9.77;4.15;;;;;;;-141.50;100.00;63355.56;5073646;28;20086;-78
2022/06/10 01:06:48;;;;;;;7.38;3.78;;;;;;;-141.50;100.00;63355.56;5074970;28;20064;-77
2022/06/10 01:09:16;;;;;;;7.80;3.85;;;;;;;-141.50;100.00;63355.56;5061590;28;20251;-76
2022/06/10 01:12:04;;;;;;;6.15;3.75;;;;;;;-141.50;100.00;63355.56;5077528;28;20052;-78
2022/06/10 01:14:43;;;;;;;8.85;4.03;;;;;;;-141.50;100.00;63355.56;5077008;28;20078;-78
2022/06/10 01:17:16;;;;;;;6.35;3.70;;;;;;;-141.50;100.00;63355.56;5054744;28;20477;-78
2022/06/10 01:19:54;;;;;;;9.82;3.90;;;;;;;-141.50;100.00;63355.56;5056130;28;20592;-78
2022/06/10 01:22:52;;;;;;;7.60;3.63;;;;;;;-141.50;100.00;63355.56;5043437;28;20125;-78
2022/06/10 01:25:24;;;;;;;7.38;3.65;;;;;;;-141.50;100.00;63355.56;5059548;28;20108;-78
2022/06/10 01:27:57;;;;;;;8.50;4.25;;;;;;;-141.50;100.00;63355.56;5058462;28;20546;-78
2022/06/10 01:30:42;;;;;;;4.63;3.63;;;;;;;-141.50;100.00;63355.56;5076886;28;20048;-76
2022/06/10 01:33:18;;;;;;;6.53;3.60;;;;;;;-141.50;100.00;63355.56;5075223;28;20076;-76
2022/06/10 01:35:56;;;;;;;7.20;3.40;;;;;;;-141.50;100.00;63355.56;5074452;28;20322;-78
2022/06/10 01:38:50;;;;;;;9.02;3.65;;;;;;;-141.50;100.00;63355.56;5057086;28;20097;-76
2022/06/10 01:41:26;;;;;;;6.50;3.35;;;;;;;-141.50;100.00;63355.56;5075715;28;20052;-77
2022/06/10 01:43:57;;;;;;;7.45;3.53;;;;;;;-141.50;100.00;63355.56;5057897;28;20522;-77
2022/06/10 01:46:27;;;;;;;8.23;3.65;;;;;;;-141.50;100.00;63355.56;5075679;28;20449;-78
2022/06/10 01:49:24;;;;;;;6.78;2.97;;;;;;;-141.50;100.00;63355.56;5075484;28;20079;-79
2022/06/10 01:52:09;;;;;;;5.97;3.58;;;;;;;-141.50;100.00;63355.56;5076518;28;20060;-77
2022/06/10 01:54:40;;;;;;;6.90;3.37;;;;;;;-141.50;100.00;63355.56;5076154;28;20628;-77
2022/06/10 01:57:13;;;;;;;6.88;3.20;;;;;;;-141.50;100.00;63355.56;5065823;28;20295;-77
2022/06/10 01:59:52;;;;;;;8.70;3.45;;;;;;;-141.50;100.00;63355.56;5078879;28;20057;-77
2022/06/10 02:02:26;;;;;;;11.20;3.45;;;;;;;-141.50;100.00;63355.56;5057223;28;20049;-77
2022/06/10 02:05:02;;;;;;;7.95;3.03;;;;;;;-141.50;100.00;63355.56;5074320;28;20414;-78
2022/06/10 02:07:28;;;;;;;6.30;3.28;;;;;;;-141.50;100.00;63355.56;5069395;28;20044;-76
2022/06/10 02:10:09;;;;;;;5.28;3.40;;;;;;;-141.50;100.00;63355.56;5091540;28;20056;-76
2022/06/10 02:12:40;;;;;;;6.25;3.28;;;;;;;-141.50;100.00;63355.56;5067114;28;20056;-78
2022/06/10 02:15:36;;;;;;;10.75;3.30;;;;;;;-141.50;100.00;63355.56;5077200;28;20052;-77
2022/06/10 02:18:11;;;;;;;5.73;3.20;;;;;;;-141.50;100.00;63355.56;5077434;28;20078;-77
2022/06/10 02:20:47;;;;;;;6.95;3.45;;;;;;;-141.50;100.00;63355.56;5078206;28;20247;-78
2022/06/10 02:23:20;;;;;;;5.10;3.30;;;;;;;-141.50;100.00;63355.56;5084403;28;20052;-77
2022/06/10 02:25:53;;;;;;;8.00;3.13;;;;;;;-141.50;100.00;63355.56;5063776;28;20123;-78
2022/06/10 02:28:28;;;;;;;6.55;3.35;;;;;;;-141.50;100.00;63355.56;5075139;28;20099;-78
2022/06/10 02:31:12;;;;;;;9.03;3.87;;;;;;;-141.50;100.00;63355.56;5075202;28;20087;-77
2022/06/10 02:33:39;;;;;;;6.65;3.03;;;;;;;-141.50;100.00;63355.56;5075224;28;20091;-77
2022/06/10 02:36:24;;;;;;;11.02;3.63;;;;;;;-141.50;100.00;63355.56;5075035;28;20053;-79
2022/06/10 02:38:58;;;;;;;6.70;3.22;;;;;;;-141.50;100.00;63355.56;5056952;28;20628;-78
2022/06/10 02:41:51;;;;;;;7.97;3.97;;;;;;;-141.50;100.00;63355.56;5075314;28;20074;-78
2022/06/10 02:44:38;;;;;;;9.57;3.45;;;;;;;-141.50;100.00;63355.56;5057367;28;20561;-78
2022/06/10 02:47:25;;;;;;;7.72;3.45;;;;;;;-141.50;100.00;63355.56;5077287;28;20560;-78
2022/06/10 02:49:52;;;;;;;7.32;3.67;;;;;;;-141.50;100.00;63355.56;5073467;28;20137;-78
2022/06/10 02:52:21;;;;;;;6.68;4.05;;;;;;;-141.50;100.00;63355.56;5075840;28;20064;-78
2022/06/10 02:54:47;;;;;;;7.68;3.40;;;;;;;-141.50;100.00;63355.56;5078090;28;20048;-76
2022/06/10 02:57:18;;;;;;;6.60;4.05;;;;;;;-141.50;100.00;63355.56;5076272;28;20052;-78
2022/06/10 03:02:41;;;;;;;10.32;3.90;;;;;;;-141.50;100.00;63355.56;5072877;28;20094;-77
2022/06/10 03:05:30;;;;;;;9.27;3.50;;;;;;;-141.50;100.00;63355.56;5071766;28;20057;-77
2022/06/10 03:08:25;;;;;;;12.23;3.70;;;;;;;-141.50;100.00;63355.56;5071988;28;20085;-77
2022/06/10 03:11:00;;;;;;;8.50;3.50;;;;;;;-141.50;100.00;63355.56;5072969;28;20106;-78
2022/06/10 03:14:15;;;;;;;9.27;4.40;;;;;;;-141.50;100.00;63355.56;5073515;28;20083;-77
2022/06/10 03:17:03;;;;;;;6.40;4.05;;;;;;;-141.50;100.00;63355.56;5073477;28;20048;-77
2022/06/10 03:19:51;;;;;;;10.40;3.95;;;;;;;-141.50;100.00;63355.56;5053436;28;20044;-78
2022/06/10 03:22:42;;;;;;;6.50;3.65;;;;;;;-141.50;100.00;63355.56;5054569;28;20059;-77
2022/06/10 03:25:26;;;;;;;9.35;3.53;;;;;;;-141.50;100.00;63355.56;5038069;28;20045;-76
2022/06/10 03:27:55;;;;;;;10.23;4.05;;;;;;;-141.50;100.00;63355.56;5054521;28;20462;-77
2022/06/10 03:30:50;;;;;;;6.22;3.67;;;;;;;-141.50;100.00;63355.56;5051785;28;20045;-77
2022/06/10 03:33:23;;;;;;;9.75;3.88;;;;;;;-141.50;100.00;63355.56;5048781;28;20087;-77
2022/06/10 03:36:11;;;;;;;12.02;4.20;;;;;;;-141.50;100.00;63355.56;5059565;28;20059;-77
2022/06/10 03:38:42;;;;;;;8.18;3.92;;;;;;;-141.50;100.00;63355.56;5079750;28;20087;-77
2022/06/10 03:41:19;;;;;;;12.32;4.10;;;;;;;-141.50;100.00;63355.56;5078062;28;20071;-77
2022/06/10 03:43:46;;;;;;;8.55;3.58;;;;;;;-141.50;100.00;63355.56;5075508;28;20056;-77
2022/06/10 03:46:14;;;;;;;8.98;3.83;;;;;;;-141.50;100.00;63355.56;5076218;28;20108;-75
2022/06/10 03:48:43;;;;;;;10.18;3.75;;;;;;;-141.50;100.00;63355.56;5077341;28;20044;-77
2022/06/10 03:51:12;;;;;;;11.23;3.95;;;;;;;-141.50;100.00;63355.56;5058146;28;20118;-77
2022/06/10 03:53:39;;;;;;;5.40;3.38;;;;;;;-141.50;100.00;63355.56;5077426;28;20754;-78
2022/06/10 03:56:09;;;;;;;7.70;3.75;;;;;;;-141.50;100.00;63355.56;5077962;28;20051;-77
2022/06/10 03:58:36;;;;;;;11.40;4.07;;;;;;;-141.50;100.00;63355.56;5060173;28;20040;-76
2022/06/10 04:01:03;;;;;;;6.07;3.38;;;;;;;-141.50;100.00;63355.56;5069749;28;20083;-76
2022/06/10 04:03:30;;;;;;;9.43;3.38;;;;;;;-141.50;100.00;63355.56;5072492;28;20534;-76
2022/06/10 04:05:56;;;;;;;8.73;3.53;;;;;;;-141.50;100.00;63355.56;5068741;28;20048;-77
2022/06/10 04:08:43;;;;;;;5.60;3.72;;;;;;;-141.50;100.00;63355.56;5069066;28;20136;-77
2022/06/10 04:11:10;;;;;;;9.43;3.95;;;;;;;-141.50;100.00;63355.56;5052852;28;20561;-77
2022/06/10 04:13:36;;;;;;;5.30;3.55;;;;;;;-141.50;100.00;63355.56;5073881;28;20048;-76
2022/06/10 04:16:03;;;;;;;7.65;3.72;;;;;;;-141.50;100.00;63355.56;5071628;28;20052;-77
2022/06/10 04:18:30;;;;;;;8.32;3.70;;;;;;;-141.50;100.00;63355.56;5053846;28;20068;-77
2022/06/10 04:20:56;;;;;;;6.18;3.85;;;;;;;-141.50;100.00;63355.56;5086000;28;20055;-76
2022/06/10 04:23:23;;;;;;;7.13;3.33;;;;;;;-141.50;100.00;63355.56;5052248;28;20447;-77
2022/06/10 04:25:49;;;;;;;7.80;3.40;;;;;;;-141.50;100.00;63355.56;5068794;28;20052;-77
2022/06/10 04:28:16;;;;;;;6.53;3.60;;;;;;;-141.50;100.00;63355.56;5070605;28;20068;-76
2022/06/10 04:30:46;;;;;;;8.77;3.85;;;;;;;-141.50;100.00;63355.56;5068660;28;20044;-74
2022/06/10 04:33:13;;;;;;;8.18;3.45;;;;;;;-141.50;100.00;63355.56;5050129;28;20094;-76
2022/06/10 04:35:42;;;;;;;7.97;3.22;;;;;;;-141.50;100.00;63355.56;5079458;28;20109;-75
2022/06/10 04:38:11;;;;;;;8.45;3.50;;;;;;;-141.50;100.00;63355.56;5092834;28;20052;-75
2022/06/10 04:40:39;;;;;;;9.02;3.15;;;;;;;-141.50;100.00;63355.56;5090346;28;20122;-75
2022/06/10 04:43:07;;;;;;;9.82;3.45;;;;;;;-141.50;100.00;63355.56;5072087;28;20110;-76
2022/06/10 04:45:41;;;;;;;6.65;3.03;;;;;;;-141.50;100.00;63355.56;5073714;28;20510;-75
2022/06/10 04:48:11;;;;;;;6.95;3.28;;;;;;;-141.50;100.00;63355.56;5092006;28;20044;-76
2022/06/10 04:50:38;;;;;;;5.32;3.38;;;;;;;-141.50;100.00;63355.56;5091567;28;20048;-75
2022/06/10 04:53:04;;;;;;;8.90;3.47;;;;;;;-141.50;100.00;63355.56;5073906;28;20126;-76
2022/06/10 04:55:31;;;;;;;10.27;3.40;;;;;;;-141.50;100.00;63355.56;5092333;28;20059;-74
2022/06/10 04:57:58;;;;;;;7.93;3.90;;;;;;;-141.50;100.00;63355.56;5092523;28;20087;-77
2022/06/10 05:00:28;;;;;;;6.68;3.25;;;;;;;-141.50;100.00;63355.56;5074116;28;20091;-76
2022/06/10 05:02:56;;;;;;;9.32;3.53;;;;;;;-141.50;100.00;63355.56;5093981;28;20147;-75
2022/06/10 05:05:22;;;;;;;6.85;3.88;;;;;;;-141.50;100.00;63355.56;5090678;28;20056;-76
2022/06/10 05:07:49;;;;;;;8.48;3.83;;;;;;;-141.50;100.00;63355.56;5077130;28;20048;-77
2022/06/10 05:10:17;;;;;;;7.82;3.50;;;;;;;-141.50;100.00;63355.56;5100346;28;20051;-78
2022/06/10 05:12:47;;;;;;;8.32;3.78;;;;;;;-141.50;100.00;63355.56;5073730;28;20079;-76
2022/06/10 05:15:15;;;;;;;9.60;3.90;;;;;;;-141.50;100.00;63355.56;5065411;28;20048;-77
2022/06/10 05:17:42;;;;;;;12.52;4.00;;;;;;;-141.50;100.00;63355.56;5068715;28;20167;-77
2022/06/10 05:20:14;;;;;;;12.23;3.95;;;;;;;-141.50;100.00;63355.56;5075187;28;20106;-77
2022/06/10 05:22:41;;;;;;;12.48;3.63;;;;;;;-141.50;100.00;63355.56;5070501;28;20508;-78
2022/06/10 05:25:08;;;;;;;11.65;3.88;;;;;;;-141.50;100.00;63355.56;5056494;28;20083;-78
2022/06/10 05:27:34;;;;;;;9.35;4.00;;;;;;;-141.50;100.00;63355.56;5076937;28;20082;-78
2022/06/10 05:30:01;;;;;;;10.50;4.05;;;;;;;-141.50;100.00;63355.56;5075104;28;20048;-77
2022/06/10 05:32:28;;;;;;;9.75;4.30;;;;;;;-141.50;100.00;63355.56;5077694;28;20063;-77
2022/06/10 05:34:54;;;;;;;8.90;3.47;;;;;;;-141.50;100.00;63355.56;5059446;28;20094;-78
2022/06/10 05:37:23;;;;;;;7.18;3.95;;;;;;;-141.50;100.00;63355.56;5060855;28;20068;-76
2022/06/10 05:39:52;;;;;;;18.02;4.45;;;;;;;-141.50;100.00;63355.56;5067460;28;20148;-78
2022/06/10 05:42:18;;;;;;;10.82;4.20;;;;;;;-141.50;100.00;63355.56;5057699;28;20110;-76
2022/06/10 05:44:50;;;;;;;8.90;4.03;;;;;;;-141.50;100.00;63355.56;5047416;28;20070;-77
2022/06/10 05:47:21;;;;;;;9.18;4.05;;;;;;;-141.50;100.00;63355.56;5059068;28;20045;-77
2022/06/10 05:49:52;;;;;;;10.73;3.88;;;;;;;-141.50;100.00;63355.56;5064333;28;20053;-76
2022/06/10 05:52:22;;;;;;;11.00;4.45;;;;;;;-141.50;100.00;63355.56;5080426;28;20063;-77
2022/06/10 05:54:50;;;;;;;9.73;3.83;;;;;;;-141.50;100.00;63355.56;5077146;28;20081;-78
2022/06/10 05:57:18;;;;;;;12.00;4.57;;;;;;;-141.50;100.00;63355.56;5078971;28;20190;-78
2022/06/10 05:59:47;;;;;;;8.25;4.07;;;;;;;-141.50;100.00;63355.56;5061565;28;20075;-77
2022/06/10 06:02:17;;;;;;;8.20;4.15;;;;;;;-141.50;100.00;63355.56;5065951;28;20048;-77
2022/06/10 06:04:43;;;;;;;8.32;4.25;;;;;;;-141.50;100.00;63355.56;5077271;28;20052;-78
2022/06/10 06:07:22;;;;;;;10.32;3.80;;;;;;;-141.50;100.00;63355.56;5060671;28;20059;-79
2022/06/10 06:09:49;;;;;;;10.82;4.20;;;;;;;-141.50;100.00;63355.56;5081608;28;20131;-77
2022/06/10 06:12:16;;;;;;;7.43;3.80;;;;;;;-141.50;100.00;63355.56;5085238;28;20076;-76
2022/06/10 06:14:43;;;;;;;12.65;3.72;;;;;;;-141.50;100.00;63355.56;5085813;28;20048;-77
2022/06/10 06:17:12;;;;;;;10.93;3.95;;;;;;;-141.50;100.00;63355.56;5083444;28;20155;-76
2022/06/10 06:19:39;;;;;;;9.40;3.80;;;;;;;-141.50;100.00;63355.56;5087308;28;20048;-75
2022/06/10 06:22:07;;;;;;;7.78;3.70;;;;;;;-141.50;100.00;63355.56;5081059;28;20131;-76
2022/06/10 06:24:37;;;;;;;8.63;3.70;;;;;;;-141.50;100.00;63355.56;5082620;28;20059;-76
2022/06/10 06:27:05;;;;;;;13.18;3.92;;;;;;;-141.50;100.00;63355.56;5087262;28;20051;-77
2022/06/10 06:29:32;;;;;;;7.70;3.60;;;;;;;-141.50;100.00;63355.56;5080644;28;20075;-77
2022/06/10 06:31:59;;;;;;;12.48;3.90;;;;;;;-141.50;100.00;63355.56;5081481;28;20082;-78
2022/06/10 06:34:26;;;;;;;7.00;3.40;;;;;;;-141.50;100.00;63355.56;5080879;28;20066;-76
2022/06/10 06:36:54;;;;;;;8.48;3.70;;;;;;;-141.50;100.00;63355.56;5083728;28;20124;-76
2022/06/10 06:39:24;;;;;;;7.20;3.45;;;;;;;-141.50;100.00;63355.56;5083762;28;20127;-78
2022/06/10 06:41:52;;;;;;;8.00;3.60;;;;;;;-141.50;100.00;63355.56;5056430;28;20052;-77
2022/06/10 06:44:19;;;;;;;8.38;3.40;;;;;;;-141.50;100.00;63355.56;5058855;28;20057;-76
2022/06/10 06:46:47;;;;;;;11.05;3.88;;;;;;;-141.50;100.00;63355.56;5058103;28;20095;-76
2022/06/10 06:49:22;;;;;;;7.80;3.00;;;;;;;-141.50;100.00;63355.56;5063601;28;20045;-78
2022/06/10 06:51:50;;;;;;;8.13;2.80;;;;;;;-141.50;100.00;63355.56;5078966;28;20057;-78
2022/06/10 06:54:17;;;;;;;10.23;2.70;;;;;;;-141.50;100.00;63355.56;5078809;28;20049;-77
2022/06/10 06:56:44;;;;;;;11.15;2.78;;;;;;;-141.50;100.00;63355.56;5067048;28;20078;-77
2022/06/10 06:59:10;;;;;;;10.65;3.10;;;;;;;-141.50;100.00;63355.56;5075022;28;20094;-77
2022/06/10 07:01:37;;;;;;;8.73;2.60;;;;;;;-141.50;100.00;63355.56;5059024;28;20074;-77
2022/06/10 07:04:05;;;;;;;6.97;2.50;;;;;;;-141.50;100.00;63355.56;5076215;28;20045;-77
2022/06/10 07:06:34;;;;;;;7.28;2.80;;;;;;;-141.50;100.00;63355.56;5080868;28;20106;-77
2022/06/10 07:09:00;;;;;;;11.13;3.00;;;;;;;-141.50;100.00;63355.56;5081098;28;20044;-78
2022/06/10 07:11:31;;;;;;;7.40;2.67;;;;;;;-141.50;100.00;63355.56;5060993;28;20511;-76
2022/06/10 07:13:57;;;;;;;6.93;2.60;;;;;;;-141.50;100.00;63355.56;5074056;28;20071;-76
2022/06/10 07:16:24;;;;;;;8.10;2.58;;;;;;;-141.50;100.00;63355.56;5060755;28;20075;-77
2022/06/10 07:18:52;;;;;;;8.85;2.35;;;;;;;-141.50;100.00;63355.56;5059439;28;20084;-77
2022/06/10 07:21:18;;;;;;;9.32;2.80;;;;;;;-141.50;100.00;63355.56;5079187;28;20082;-76
2022/06/10 07:23:45;;;;;;;9.13;2.55;;;;;;;-141.50;100.00;63355.56;5077993;28;20101;-78
2022/06/10 07:26:11;;;;;;;10.10;2.83;;;;;;;-141.50;100.00;63355.56;5080098;28;20044;-76
2022/06/10 07:28:38;;;;;;;8.02;2.50;;;;;;;-141.50;100.00;63355.56;5078775;28;20067;-76
2022/06/10 07:31:04;;;;;;;19.95;3.10;;;;;;;-141.50;100.00;63355.56;5060263;28;20074;-78
2022/06/10 07:33:35;;;;;;;10.25;2.90;;;;;;;-141.50;100.00;63355.56;5079165;28;20044;-78
2022/06/10 07:36:05;;;;;;;11.15;2.90;;;;;;;-141.50;100.00;63355.56;5060473;28;20052;-77
2022/06/10 07:38:32;;;;;;;9.48;3.17;;;;;;;-141.50;100.00;63355.56;5076998;28;20049;-77
2022/06/10 07:43:44;;;;;;;9.07;2.67;;;;;;;-141.50;100.00;63355.56;5077069;28;20113;-77
2022/06/10 07:46:18;;;;;;;6.43;2.80;;;;;;;-141.50;100.00;63355.56;5077635;28;20045;-77
2022/06/10 07:48:45;;;;;;;6.45;2.50;;;;;;;-141.50;100.00;63355.56;5060871;28;20064;-79
2022/06/10 07:51:16;;;;;;;7.05;2.78;;;;;;;-141.50;100.00;63355.56;5078064;28;20497;-78
2022/06/10 07:53:43;;;;;;;6.50;2.60;;;;;;;-141.50;100.00;63355.56;5064828;28;20055;-77
2022/06/10 07:56:13;;;;;;;6.80;2.25;;;;;;;-141.50;100.00;63355.56;5061225;28;20048;-78
2022/06/10 07:58:42;;;;;;;10.35;2.30;;;;;;;-141.50;100.00;63355.56;5065535;28;20580;-77
2022/06/10 08:01:09;;;;;;;5.55;2.10;;;;;;;-141.50;100.00;63355.56;5055520;28;20075;-78
2022/06/10 08:03:38;;;;;;;7.00;2.20;;;;;;;-141.50;100.00;63355.56;5056992;28;20498;-76
2022/06/10 08:06:05;;;;;;;7.13;2.50;;;;;;;-141.50;100.00;63355.56;5060573;28;20049;-77
2022/06/10 08:08:32;;;;;;;5.25;2.13;;;;;;;-141.50;100.00;63355.56;5058723;28;20044;-77
2022/06/10 08:10:59;;;;;;;9.25;2.38;;;;;;;-141.50;100.00;63355.56;5056653;28;20076;-77
2022/06/10 08:13:26;;;;;;;11.27;2.40;;;;;;;-141.50;100.00;63355.56;5057805;28;20107;-77
2022/06/10 08:15:56;;;;;;;5.82;1.90;;;;;;;-141.50;100.00;63355.56;5054836;28;20296;-77
2022/06/10 08:18:24;;;;;;;8.05;1.83;;;;;;;-141.50;100.00;63355.56;5063144;28;20064;-77
2022/06/10 08:23:41;;;;;;;10.18;2.17;;;;;;;-141.50;100.00;63355.56;5084492;28;20048;-78
2022/06/10 08:26:11;;;;;;;7.97;2.53;;;;;;;-141.50;100.00;63355.56;5076338;28;20048;-77
2022/06/10 08:28:44;;;;;;;8.23;2.30;;;;;;;-141.50;100.00;63355.56;5075011;28;20083;-77
2022/06/10 08:31:11;;;;;;;12.15;2.70;;;;;;;-141.50;100.00;63355.56;5084304;28;20667;-80
2022/06/10 08:33:39;;;;;;;7.80;2.38;;;;;;;-141.50;100.00;63355.56;5085154;28;20106;-79
2022/06/10 08:36:07;;;;;;;8.80;2.20;;;;;;;-141.50;100.00;63355.56;5081151;28;20060;-80
2022/06/10 08:38:34;;;;;;;6.00;2.42;;;;;;;-141.50;100.00;63355.56;5079803;28;20049;-79
2022/06/10 08:41:15;;;;;;;11.77;2.38;;;;;;;-141.50;100.00;63355.56;5080858;28;20100;-78
2022/06/10 08:43:51;;;;;;;9.02;2.55;;;;;;;-141.50;100.00;63355.56;5082679;28;20052;-79
2022/06/10 08:46:42;;;;;;;11.13;2.65;;;;;;;-141.50;100.00;63355.56;5085670;28;20048;-78
2022/06/10 08:49:09;;;;;;;12.38;2.50;;;;;;;-141.50;100.00;63355.56;5083310;28;20044;-78
2022/06/10 08:51:48;;;;;;;10.32;3.00;;;;;;;-141.50;100.00;63355.56;5080033;28;20064;-80
2022/06/10 08:54:24;;;;;;;10.77;2.53;;;;;;;-141.50;100.00;63355.56;5085972;28;20044;-79
2022/06/10 08:56:55;;;;;;;9.60;2.90;;;;;;;-141.50;100.00;63355.56;5086521;28;20048;-79
2022/06/10 08:59:24;;;;;;;9.25;2.65;;;;;;;-141.50;100.00;63355.56;5091129;28;20036;-77
2022/06/10 09:02:03;;;;;;;9.15;2.45;;;;;;;-141.50;100.00;63355.56;5092035;28;20048;-78
2022/06/10 09:04:41;;;;;;;6.22;2.38;;;;;;;-141.50;100.00;63355.56;5075078;28;20572;-78
2022/06/10 09:07:27;;;;;;;10.95;2.67;;;;;;;-141.50;100.00;63355.56;5077182;28;20049;-78
2022/06/10 09:09:55;;;;;;;6.78;2.35;;;;;;;-141.50;100.00;63355.56;5079133;28;20100;-80
2022/06/10 09:12:37;;;;;;;10.07;2.30;;;;;;;-141.50;100.00;63355.56;5082195;28;20060;-78
2022/06/10 09:15:04;;;;;;;7.72;2.88;;;;;;;-141.50;100.00;63355.56;5083411;28;20049;-79
2022/06/10 09:17:43;;;;;;;9.75;2.80;;;;;;;-141.50;100.00;63355.56;5082249;28;20114;-79
2022/06/10 09:20:24;;;;;;;5.57;2.47;;;;;;;-141.50;100.00;63355.56;5065958;28;20049;-79
2022/06/10 09:23:04;;;;;;;7.68;2.70;;;;;;;-141.50;100.00;63355.56;5048181;28;20052;-77
2022/06/10 09:25:41;;;;;;;7.93;2.40;;;;;;;-141.50;100.00;63355.56;5062724;28;20044;-77
2022/06/10 09:28:08;;;;;;;7.22;2.33;;;;;;;-141.50;100.00;63355.56;5093435;28;20078;-79
2022/06/10 09:30:43;;;;;;;9.70;2.20;;;;;;;-141.50;100.00;63355.56;5085396;28;20048;-79
2022/06/10 09:33:19;;;;;;;15.48;2.40;;;;;;;-141.50;100.00;63355.56;5088579;28;20334;-77
2022/06/10 09:35:46;;;;;;;;;;;;;;;-141.50;100.00;63355.56;5095354;28;20032;-76
2022/06/10 09:38:23;;;;;;;8.50;1.92;;;;;;;-141.50;100.00;63355.56;5083211;28;20451;-76
2022/06/10 09:41:09;;;;;;;9.73;2.38;;;;;;;-141.50;100.00;63355.56;5086350;28;20564;-78
2022/06/10 09:43:42;;;;;;;5.93;2.22;;;;;;;-141.50;100.00;63355.56;5085494;28;20049;-81
2022/06/10 09:46:15;;;;;;;6.60;2.15;;;;;;;-141.50;100.00;63355.56;5085659;28;20083;-77
2022/06/10 09:49:02;;;;;;;6.10;1.80;;;;;;;-141.50;100.00;63355.56;5081204;28;20139;-77
2022/06/10 09:51:38;;;;;;;6.18;1.98;;;;;;;-141.50;100.00;63355.56;5070404;28;20057;-77
2022/06/10 09:54:14;;;;;;;6.63;1.85;;;;;;;-141.50;100.00;63355.56;5076112;28;20075;-76
2022/06/10 09:57:05;;;;;;;4.60;1.48;;;;;;;-141.50;100.00;63355.56;5076850;28;20044;-77
2022/06/10 09:59:42;;;;;;;3.88;1.75;;;;;;;-141.50;100.00;63355.56;5080049;28;20106;-78
2022/06/10 10:02:18;;;;;;;7.65;1.40;;;;;;;-141.50;100.00;63355.56;5061559;28;20056;-76
2022/06/10 10:05:12;;;;;;;5.10;1.60;;;;;;;-141.50;100.00;63355.56;5074952;28;20048;-79
2022/06/10 10:07:50;;;;;;;7.90;1.70;;;;;;;-141.50;100.00;63355.56;5083016;28;20083;-78
2022/06/10 10:10:36;;;;;;;5.53;1.70;;;;;;;-141.50;100.00;63355.56;5080545;28;20525;-78
2022/06/10 10:13:30;;;;;;;6.18;1.50;;;;;;;-141.50;100.00;63355.56;5080093;28;20056;-80
2022/06/10 10:16:22;;;;;;;6.93;1.77;;;;;;;-141.50;100.00;63355.56;5066489;28;20052;-80
2022/06/10 10:19:01;;;;;;;5.47;1.52;;;;;;;-141.50;100.00;63355.56;5084294;28;20139;-76
2022/06/10 10:21:27;;;;;;;12.20;2.05;;;;;;;-141.50;100.00;63355.56;5083183;28;20059;-75
2022/06/10 10:23:58;;;;;;;6.22;1.70;;;;;;;-141.50;100.00;63355.56;5060931;28;20202;-75
2022/06/10 10:26:37;;;;;;;8.57;1.83;;;;;;;-141.50;100.00;63355.56;5082569;28;20052;-76
2022/06/10 10:29:13;;;;;;;4.35;1.60;;;;;;;-141.50;100.00;63355.56;5084727;28;20036;-76
2022/06/10 10:32:17;;;;;;;6.38;1.73;;;;;;;-141.50;100.00;63355.56;5079510;28;20052;-76
2022/06/10 10:34:50;;;;;;;8.20;1.85;;;;;;;-141.50;100.00;63355.56;5076753;28;20054;-77
2022/06/10 10:37:29;;;;;;;7.80;1.60;;;;;;;-141.50;100.00;63355.56;5059658;28;20049;-77
2022/06/10 10:40:21;;;;;;;7.38;1.70;;;;;;;-141.50;100.00;63355.56;5073862;28;20059;-75
2022/06/10 10:42:53;;;;;;;7.25;1.70;;;;;;;-141.50;100.00;63355.56;5069885;28;20067;-78
2022/06/10 10:45:32;;;;;;;5.40;1.60;;;;;;;-141.50;100.00;63355.56;5074448;28;20044;-78
2022/06/10 10:48:16;;;;;;;7.70;1.45;;;;;;;-141.50;100.00;63355.56;5071448;28;20161;-77
2022/06/10 10:51:12;;;;;;;3.60;1.50;;;;;;;-141.50;100.00;63355.56;5073461;28;20106;-80
2022/06/10 10:54:08;;;;;;;6.10;1.60;;;;;;;-141.50;100.00;63355.56;5063017;28;20048;-76
2022/06/10 10:56:40;;;;;;;5.60;1.73;;;;;;;-141.50;100.00;63355.56;5064987;28;20056;-77
2022/06/10 10:59:28;;;;;;;6.57;1.50;;;;;;;-141.50;100.00;63355.56;5069054;28;20068;-76
2022/06/10 11:01:55;;;;;;;8.05;1.58;;;;;;;-141.50;100.00;63355.56;5050527;28;20090;-78
2022/06/10 11:04:34;;;;;;;4.30;1.40;;;;;;;-141.50;100.00;63355.56;5072385;28;20113;-76
2022/06/10 11:07:04;;;;;;;5.38;1.60;;;;;;;-141.50;100.00;63355.56;5072850;28;20063;-78
2022/06/10 11:09:55;;;;;;;6.00;1.55;;;;;;;-141.50;100.00;63355.56;5069581;28;20055;-76
2022/06/10 11:12:26;;;;;;;11.07;1.80;;;;;;;-141.50;100.00;63355.56;5072953;28;20131;-78
2022/06/10 11:15:00;;;;;;;7.93;1.73;;;;;;;-141.50;100.00;63355.56;5072191;28;20048;-76
2022/06/10 11:17:28;;;;;;;4.60;1.90;;;;;;;-141.50;100.00;63355.56;5075299;28;20053;-76
2022/06/10 11:20:13;;;;;;;10.10;1.85;;;;;;;-141.50;100.00;63355.56;5076102;28;20071;-76
2022/06/10 11:22:40;;;;;;;6.63;1.95;;;;;;;-141.50;100.00;63355.56;5071528;28;20545;-75
2022/06/10 11:25:14;;;;;;;8.07;1.60;;;;;;;-141.50;100.00;63355.56;5074416;28;20052;-76
2022/06/10 11:28:03;;;;;;;11.80;1.52;;;;;;;-141.50;100.00;63355.56;5069156;28;20060;-77
2022/06/10 11:30:35;;;;;;;6.78;1.63;;;;;;;-141.50;100.00;63355.56;5070829;28;20663;-77
2022/06/10 11:33:05;;;;;;;7.88;1.40;;;;;;;-141.50;100.00;63355.56;5071028;28;20139;-75
2022/06/10 11:35:40;;;;;;;7.63;1.48;;;;;;;-141.50;100.00;63355.56;5067533;28;20059;-79
2022/06/10 11:38:15;;;;;;;5.38;1.80;;;;;;;-141.50;100.00;63355.56;5070375;28;20061;-77
2022/06/10 11:40:49;;;;;;;5.53;1.50;;;;;;;-141.50;100.00;63355.56;5075747;28;20053;-76
2022/06/10 11:43:31;;;;;;;2.90;1.23;;;;;;;-141.50;100.00;63355.56;5076232;28;20074;-77